createdAt,value
2022-08-24T00:00:42.250Z,25.10
2022-08-24T00:03:46.061Z,25.10
2022-08-24T00:06:47.840Z,25.20
2022-08-24T00:09:50.794Z,25.10
2022-08-24T00:12:52.791Z,25.20
2022-08-24T00:15:55.758Z,25.10
2022-08-24T00:18:57.827Z,25.10
2022-08-24T00:22:00.279Z,25.10
2022-08-24T00:25:02.233Z,25.10
2022-08-24T00:28:05.527Z,25.10
2022-08-24T00:31:08.209Z,25.10
2022-08-24T00:34:10.946Z,25.10
2022-08-24T00:37:13.054Z,25.10
2022-08-24T00:40:23.628Z,25.10
2022-08-24T00:43:26.427Z,25.10
2022-08-24T00:46:43.500Z,25.10
2022-08-24T00:49:57.911Z,25.10
2022-08-24T00:53:04.562Z,25.10
2022-08-24T00:56:14.522Z,25.10
2022-08-24T00:59:24.044Z,25.10
2022-08-24T01:02:31.141Z,25.10
2022-08-24T01:05:35.724Z,25.10
2022-08-24T01:08:37.522Z,25.10
2022-08-24T01:11:40.720Z,25.10
2022-08-24T01:14:43.076Z,25.10
2022-08-24T01:18:04.143Z,25.10
2022-08-24T01:21:30.229Z,25.10
2022-08-24T01:24:32.125Z,25.00
2022-08-24T01:27:36.248Z,25.00
2022-08-24T01:30:38.724Z,25.00
2022-08-24T01:33:41.260Z,25.00
2022-08-24T01:36:49.279Z,25.00
2022-08-24T01:39:55.551Z,25.00
2022-08-24T01:42:58.283Z,25.00
2022-08-24T01:46:00.327Z,25.00
2022-08-24T01:49:03.170Z,25.00
2022-08-24T01:52:07.027Z,25.00
2022-08-24T01:55:11.102Z,25.00
2022-08-24T01:58:13.187Z,25.00
2022-08-24T02:01:18.684Z,25.00
2022-08-24T02:04:22.951Z,25.00
2022-08-24T02:07:25.091Z,25.00
2022-08-24T02:10:27.514Z,25.00
2022-08-24T02:13:30.063Z,25.00
2022-08-24T02:16:31.919Z,25.00
2022-08-24T02:19:34.534Z,25.00
2022-08-24T02:22:36.338Z,25.00
2022-08-24T02:25:38.157Z,25.00
2022-08-24T02:28:41.139Z,25.00
2022-08-24T02:31:43.639Z,25.00
2022-08-24T02:34:46.704Z,25.00
2022-08-24T02:37:48.866Z,25.00
2022-08-24T02:40:51.817Z,25.00
2022-08-24T02:43:54.817Z,25.00
2022-08-24T02:46:56.856Z,25.00
2022-08-24T02:49:58.656Z,24.90
2022-08-24T02:53:00.750Z,24.90
2022-08-24T02:56:03.109Z,24.90
2022-08-24T02:59:06.871Z,24.90
2022-08-24T03:02:08.817Z,24.90
2022-08-24T03:05:11.717Z,24.90
2022-08-24T03:08:14.097Z,24.90
2022-08-24T03:11:16.477Z,24.90
2022-08-24T03:14:18.765Z,24.90
2022-08-24T03:17:20.676Z,24.90
2022-08-24T03:20:23.514Z,24.90
2022-08-24T03:23:25.842Z,24.90
2022-08-24T03:26:27.799Z,24.90
2022-08-24T03:29:32.959Z,24.90
2022-08-24T03:32:35.934Z,24.90
2022-08-24T03:35:39.639Z,24.90
2022-08-24T03:38:42.015Z,24.90
2022-08-24T03:41:44.055Z,24.90
2022-08-24T03:44:45.903Z,24.90
2022-08-24T03:47:48.599Z,24.90
2022-08-24T03:50:51.159Z,24.90
2022-08-24T03:53:54.140Z,24.90
2022-08-24T03:56:58.962Z,24.90
2022-08-24T04:00:01.925Z,24.90
2022-08-24T04:03:05.128Z,24.90
2022-08-24T04:06:08.332Z,24.90
2022-08-24T04:09:11.722Z,24.90
2022-08-24T04:12:15.991Z,24.90
2022-08-24T04:15:18.776Z,24.80
2022-08-24T04:18:20.654Z,24.80
2022-08-24T04:21:28.947Z,24.90
2022-08-24T04:24:31.948Z,24.80
2022-08-24T04:27:33.927Z,24.80
2022-08-24T04:30:39.415Z,24.90
2022-08-24T04:33:47.082Z,24.80
2022-08-24T04:36:55.880Z,24.80
2022-08-24T04:39:57.786Z,24.80
2022-08-24T04:43:02.939Z,24.80
2022-08-24T04:46:07.784Z,24.80
2022-08-24T04:49:09.635Z,24.80
2022-08-24T04:52:11.431Z,24.80
2022-08-24T04:55:16.020Z,24.80
2022-08-24T04:58:18.722Z,24.30
2022-08-24T05:01:23.483Z,23.90
2022-08-24T05:04:25.315Z,23.70
2022-08-24T05:07:27.422Z,23.60
2022-08-24T05:10:29.368Z,23.40
2022-08-24T05:13:36.470Z,23.30
2022-08-24T05:16:38.387Z,23.30
2022-08-24T05:19:40.415Z,23.10
2022-08-24T05:22:42.814Z,23.10
2022-08-24T05:25:44.653Z,23.00
2022-08-24T05:28:47.708Z,22.90
2022-08-24T05:31:49.781Z,22.90
2022-08-24T05:34:51.984Z,22.90
2022-08-24T05:37:53.793Z,22.80
2022-08-24T05:40:56.158Z,22.80
2022-08-24T05:44:00.959Z,22.80
2022-08-24T05:47:07.729Z,22.80
2022-08-24T05:50:09.563Z,22.90
2022-08-24T05:53:13.282Z,22.90
2022-08-24T05:56:18.773Z,22.90
2022-08-24T05:59:22.513Z,22.90
2022-08-24T06:02:24.576Z,22.90
2022-08-24T06:05:26.597Z,23.10
2022-08-24T06:08:28.495Z,23.20
2022-08-24T06:11:39.118Z,23.20
2022-08-24T06:14:47.438Z,23.20
2022-08-24T06:17:50.303Z,23.30
2022-08-24T06:20:52.492Z,23.20
2022-08-24T06:24:00.481Z,23.20
2022-08-24T06:27:20.910Z,23.30
2022-08-24T06:30:23.011Z,23.30
2022-08-24T06:33:37.371Z,23.40
2022-08-24T06:36:40.076Z,23.50
2022-08-24T06:39:42.098Z,23.60
2022-08-24T06:42:45.964Z,23.60
2022-08-24T06:45:58.677Z,23.70
2022-08-24T06:49:05.396Z,23.80
2022-08-24T06:52:13.274Z,23.80
2022-08-24T06:55:16.431Z,23.80
2022-08-24T06:58:18.717Z,23.90
2022-08-24T07:01:26.819Z,23.90
2022-08-24T07:04:29.091Z,23.90
2022-08-24T07:07:49.320Z,24.00
2022-08-24T07:10:51.542Z,24.00
2022-08-24T07:13:53.422Z,24.00
2022-08-24T07:16:55.449Z,24.00
2022-08-24T07:19:59.178Z,24.00
2022-08-24T07:23:41.007Z,24.10
2022-08-24T07:26:44.339Z,24.10
2022-08-24T07:29:56.303Z,24.10
2022-08-24T07:33:10.679Z,24.20
2022-08-24T07:36:21.983Z,24.20
2022-08-24T07:39:24.638Z,24.20
2022-08-24T07:42:31.787Z,24.20
2022-08-24T07:45:35.468Z,24.20
2022-08-24T07:48:37.745Z,24.20
2022-08-24T07:51:44.919Z,24.20
2022-08-24T07:54:49.506Z,24.30
2022-08-24T07:57:51.402Z,24.30
2022-08-24T08:00:53.308Z,24.30
2022-08-24T08:03:55.908Z,24.30
2022-08-24T08:06:58.033Z,24.30
2022-08-24T08:10:01.910Z,24.30
2022-08-24T08:13:05.181Z,24.40
2022-08-24T08:16:08.644Z,24.40
2022-08-24T08:19:11.361Z,24.40
2022-08-24T08:22:35.727Z,24.40
2022-08-24T08:26:04.131Z,24.40
2022-08-24T08:29:19.424Z,24.40
2022-08-24T08:32:21.954Z,24.40
2022-08-24T08:35:26.517Z,24.40
2022-08-24T08:38:28.539Z,24.40
2022-08-24T08:41:39.547Z,24.40
2022-08-24T08:45:16.562Z,24.40
2022-08-24T08:49:15.768Z,24.40
2022-08-24T08:52:32.513Z,24.50
2022-08-24T08:56:09.530Z,24.50
2022-08-24T08:59:38.903Z,24.50
2022-08-24T09:03:08.675Z,24.50
2022-08-24T09:06:37.077Z,24.50
2022-08-24T09:09:49.740Z,24.50
2022-08-24T09:13:24.936Z,24.50
2022-08-24T09:16:57.875Z,24.50
2022-08-24T09:20:12.398Z,24.60
2022-08-24T09:23:40.179Z,24.50
2022-08-24T09:26:59.131Z,24.60
2022-08-24T09:30:10.968Z,24.60
2022-08-24T09:33:22.712Z,24.60
2022-08-24T09:36:43.323Z,24.60
2022-08-24T09:40:17.545Z,24.60
2022-08-24T09:43:34.591Z,24.60
2022-08-24T09:46:45.386Z,24.60
2022-08-24T09:50:32.446Z,24.60
2022-08-24T09:53:43.024Z,24.60
2022-08-24T09:57:12.275Z,24.60
2022-08-24T10:00:34.599Z,24.60
2022-08-24T10:03:39.481Z,24.60
2022-08-24T10:07:17.186Z,24.60
2022-08-24T10:11:13.148Z,24.60
2022-08-24T10:14:52.577Z,24.60
2022-08-24T10:18:21.342Z,24.70
2022-08-24T10:21:58.524Z,24.70
2022-08-24T10:25:03.383Z,24.70
2022-08-24T10:28:39.362Z,24.70
2022-08-24T10:32:14.435Z,24.70
2022-08-24T10:35:18.601Z,24.70
2022-08-24T10:39:00.952Z,24.70
2022-08-24T10:42:37.800Z,24.70
2022-08-24T10:46:10.712Z,24.70
2022-08-24T10:49:21.207Z,24.70
2022-08-24T10:52:47.363Z,24.70
2022-08-24T10:56:09.351Z,24.70
2022-08-24T10:59:22.868Z,24.80
2022-08-24T11:02:39.371Z,24.80
2022-08-24T11:05:56.186Z,24.80
2022-08-24T11:09:06.269Z,24.80
2022-08-24T11:12:21.458Z,24.80
2022-08-24T11:15:27.941Z,24.80
2022-08-24T11:18:52.298Z,24.80
2022-08-24T11:21:57.522Z,24.80
2022-08-24T11:25:10.327Z,24.80
2022-08-24T11:28:24.932Z,24.80
2022-08-24T11:31:35.964Z,24.80
2022-08-24T11:34:39.756Z,24.80
2022-08-24T11:37:42.199Z,24.80
2022-08-24T11:40:50.903Z,24.80
2022-08-24T11:43:52.710Z,24.90
2022-08-24T11:47:19.767Z,24.90
2022-08-24T11:50:48.618Z,24.90
2022-08-24T11:54:19.804Z,24.90
2022-08-24T11:57:30.203Z,24.90
2022-08-24T12:01:08.283Z,24.90
2022-08-24T12:04:23.836Z,24.90
2022-08-24T12:07:40.945Z,24.90
2022-08-24T12:11:03.623Z,24.90
2022-08-24T12:14:10.984Z,24.90
2022-08-24T12:17:16.782Z,24.90
2022-08-24T12:20:33.033Z,24.90
2022-08-24T12:23:45.960Z,24.90
2022-08-24T12:26:51.643Z,24.90
2022-08-24T12:30:05.292Z,24.90
2022-08-24T12:33:13.040Z,24.90
2022-08-24T12:36:32.122Z,24.90
2022-08-24T12:40:11.148Z,24.90
2022-08-24T12:43:13.118Z,25.00
2022-08-24T12:46:20.514Z,25.00
2022-08-24T12:49:25.672Z,25.00
2022-08-24T12:52:42.558Z,25.00
2022-08-24T12:56:03.187Z,25.00
2022-08-24T12:59:30.619Z,25.00
2022-08-24T13:02:48.073Z,25.00
2022-08-24T13:05:56.246Z,25.00
2022-08-24T13:09:27.051Z,25.00
2022-08-24T13:12:43.686Z,25.00
2022-08-24T13:15:45.508Z,25.00
2022-08-24T13:19:10.528Z,25.00
2022-08-24T13:22:15.833Z,25.00
2022-08-24T13:25:57.940Z,25.00
2022-08-24T13:29:00.858Z,25.00
2022-08-24T13:32:02.887Z,25.00
2022-08-24T13:35:38.850Z,25.00
2022-08-24T13:39:05.741Z,25.00
2022-08-24T13:42:23.593Z,25.00
2022-08-24T13:46:01.252Z,25.00
2022-08-24T13:49:15.009Z,25.00
2022-08-24T13:52:48.172Z,25.00
2022-08-24T13:55:54.096Z,25.00
2022-08-24T13:59:11.417Z,25.10
2022-08-24T14:02:16.023Z,25.10
2022-08-24T14:05:47.459Z,25.10
2022-08-24T14:09:18.124Z,25.10
2022-08-24T14:12:32.119Z,25.10
2022-08-24T14:16:31.981Z,25.10
2022-08-24T14:19:34.084Z,25.00
2022-08-24T14:23:23.699Z,25.10
2022-08-24T14:26:37.997Z,25.10
2022-08-24T14:29:42.919Z,25.10
2022-08-24T14:32:59.871Z,25.00
2022-08-24T14:36:20.728Z,25.10
2022-08-24T14:39:40.954Z,25.00
2022-08-24T14:42:56.681Z,25.10
2022-08-24T14:46:09.450Z,25.00
2022-08-24T14:49:17.124Z,25.10
2022-08-24T14:52:22.233Z,25.10
2022-08-24T14:56:01.397Z,25.10
2022-08-24T14:59:05.900Z,25.10
2022-08-24T15:02:29.320Z,25.10
2022-08-24T15:05:34.860Z,25.10
2022-08-24T15:08:42.998Z,25.10
2022-08-24T15:11:47.374Z,25.00
2022-08-24T15:15:01.987Z,25.10
2022-08-24T15:18:21.947Z,25.10
2022-08-24T15:21:29.099Z,25.10
2022-08-24T15:24:47.119Z,25.10
2022-08-24T15:28:06.686Z,25.10
2022-08-24T15:31:11.136Z,25.10
2022-08-24T15:34:13.698Z,25.10
2022-08-24T15:37:29.359Z,25.10
2022-08-24T15:40:33.105Z,25.10
2022-08-24T15:43:38.582Z,25.10
2022-08-24T15:46:44.701Z,25.10
2022-08-24T15:49:55.172Z,25.10
2022-08-24T15:53:05.405Z,25.10
2022-08-24T15:56:25.662Z,25.10
2022-08-24T15:59:48.577Z,25.10
2022-08-24T16:02:50.446Z,25.10
2022-08-24T16:05:55.555Z,25.10
2022-08-24T16:08:58.940Z,25.10
2022-08-24T16:12:12.780Z,25.10
2022-08-24T16:15:19.322Z,25.10
2022-08-24T16:18:21.339Z,25.10
2022-08-24T16:21:41.816Z,25.10
2022-08-24T16:24:43.703Z,25.10
2022-08-24T16:28:00.500Z,25.10
2022-08-24T16:31:07.614Z,25.10
2022-08-24T16:34:30.003Z,25.10
2022-08-24T16:37:32.271Z,25.10
2022-08-24T16:40:36.310Z,25.10
2022-08-24T16:43:41.262Z,25.10
2022-08-24T16:46:43.028Z,25.10
2022-08-24T16:49:50.133Z,25.10
2022-08-24T16:52:51.943Z,25.10
2022-08-24T16:55:54.078Z,25.10
2022-08-24T16:58:56.223Z,25.10
2022-08-24T17:01:59.042Z,25.10
2022-08-24T17:05:01.047Z,25.10
2022-08-24T17:08:03.244Z,25.10
2022-08-24T17:11:05.501Z,25.10
2022-08-24T17:14:07.302Z,25.20
2022-08-24T17:17:13.285Z,25.10
2022-08-24T17:20:15.720Z,25.10
2022-08-24T17:23:17.519Z,25.10
2022-08-24T17:26:21.635Z,25.10
2022-08-24T17:29:24.805Z,25.10
2022-08-24T17:32:26.812Z,25.10
2022-08-24T17:35:28.683Z,25.10
2022-08-24T17:38:31.448Z,25.10
2022-08-24T17:41:34.602Z,25.10
2022-08-24T17:44:37.016Z,25.10
2022-08-24T17:47:39.946Z,25.10
2022-08-24T17:50:41.704Z,25.20
2022-08-24T17:53:43.482Z,25.10
2022-08-24T17:56:48.636Z,25.20
2022-08-24T17:59:50.699Z,25.10
2022-08-24T18:02:52.508Z,25.10
2022-08-24T18:05:54.536Z,25.10
2022-08-24T18:08:58.173Z,25.20
2022-08-24T18:12:00.603Z,25.10
2022-08-24T18:15:02.493Z,25.10
2022-08-24T18:18:08.509Z,25.10
2022-08-24T18:21:11.453Z,25.10
2022-08-24T18:24:13.269Z,25.10
2022-08-24T18:27:30.502Z,25.10
2022-08-24T18:30:34.455Z,25.10
2022-08-24T18:33:36.271Z,25.20
2022-08-24T18:36:38.197Z,25.10
2022-08-24T18:39:40.017Z,25.20
2022-08-24T18:42:42.448Z,25.20
2022-08-24T18:45:44.404Z,25.20
2022-08-24T18:48:46.247Z,25.10
2022-08-24T18:51:49.127Z,25.20
2022-08-24T18:54:51.325Z,25.20
2022-08-24T18:57:53.575Z,25.20
2022-08-24T19:00:55.460Z,25.20
2022-08-24T19:03:57.398Z,25.20
2022-08-24T19:06:59.269Z,25.20
2022-08-24T19:10:01.569Z,25.20
2022-08-24T19:13:08.740Z,25.20
2022-08-24T19:16:10.562Z,25.20
2022-08-24T19:19:12.420Z,25.20
2022-08-24T19:22:15.511Z,25.20
2022-08-24T19:25:24.552Z,25.20
2022-08-24T19:28:27.027Z,25.20
2022-08-24T19:31:29.422Z,25.20
2022-08-24T19:34:31.994Z,25.20
2022-08-24T19:37:33.846Z,25.20
2022-08-24T19:40:35.719Z,25.20
2022-08-24T19:44:01.314Z,25.20
2022-08-24T19:47:04.394Z,25.20
2022-08-24T19:50:08.271Z,25.20
2022-08-24T19:53:10.372Z,25.20
2022-08-24T19:56:12.386Z,25.30
2022-08-24T19:59:25.756Z,25.30
2022-08-24T20:02:27.633Z,25.30
2022-08-24T20:05:29.807Z,25.30
2022-08-24T20:08:31.741Z,25.20
2022-08-24T20:11:33.666Z,25.30
2022-08-24T20:14:37.547Z,25.30
2022-08-24T20:17:39.665Z,25.30
2022-08-24T20:20:42.223Z,25.20
2022-08-24T20:23:45.353Z,25.20
2022-08-24T20:26:47.239Z,25.30
2022-08-24T20:29:49.351Z,25.30
2022-08-24T20:32:51.130Z,25.30
2022-08-24T20:35:53.041Z,25.30
2022-08-24T20:38:57.903Z,25.30
2022-08-24T20:42:00.487Z,25.30
2022-08-24T20:45:02.620Z,25.30
2022-08-24T20:48:05.572Z,25.30
2022-08-24T20:51:07.605Z,25.30
2022-08-24T20:54:09.425Z,25.30
2022-08-24T20:57:16.764Z,25.30
2022-08-24T21:00:20.735Z,25.30
2022-08-24T21:03:22.588Z,25.30
2022-08-24T21:06:24.507Z,25.30
2022-08-24T21:09:26.440Z,25.30
2022-08-24T21:12:32.485Z,25.30
2022-08-24T21:15:34.605Z,25.30
2022-08-24T21:18:37.147Z,25.30
2022-08-24T21:21:42.234Z,25.30
2022-08-24T21:24:44.409Z,25.30
2022-08-24T21:27:48.225Z,25.30
2022-08-24T21:30:49.970Z,25.30
2022-08-24T21:34:10.796Z,25.30
2022-08-24T21:37:15.865Z,25.30
2022-08-24T21:40:17.679Z,25.30
2022-08-24T21:43:20.219Z,25.30
2022-08-24T21:46:32.501Z,25.20
2022-08-24T21:49:34.679Z,25.20
2022-08-24T21:52:37.189Z,25.20
2022-08-24T21:55:41.308Z,25.30
2022-08-24T21:58:43.164Z,25.20
2022-08-24T22:01:45.191Z,25.20
2022-08-24T22:04:47.807Z,25.20
2022-08-24T22:07:58.609Z,25.30
2022-08-24T22:11:00.389Z,25.20
2022-08-24T22:14:03.770Z,25.20
2022-08-24T22:17:05.632Z,25.20
2022-08-24T22:20:21.543Z,25.20
2022-08-24T22:23:24.787Z,25.20
2022-08-24T22:26:29.446Z,25.20
2022-08-24T22:29:31.278Z,25.20
2022-08-24T22:32:33.054Z,25.20
2022-08-24T22:35:45.411Z,25.20
2022-08-24T22:38:47.358Z,25.20
2022-08-24T22:41:49.112Z,25.20
2022-08-24T22:44:50.963Z,25.20
2022-08-24T22:47:52.903Z,25.30
2022-08-24T22:50:54.693Z,25.20
2022-08-24T22:53:57.043Z,25.20
2022-08-24T22:56:58.832Z,25.30
2022-08-24T23:00:01.346Z,25.20
2022-08-24T23:03:03.349Z,25.20
2022-08-24T23:06:06.031Z,25.20
2022-08-24T23:09:08.305Z,25.20
2022-08-24T23:12:13.993Z,25.20
2022-08-24T23:15:15.885Z,25.30
2022-08-24T23:18:36.213Z,25.30
2022-08-24T23:21:38.145Z,25.30
2022-08-24T23:24:41.726Z,25.30
2022-08-24T23:27:46.550Z,25.30
2022-08-24T23:30:51.211Z,25.20
2022-08-24T23:33:54.110Z,25.20
2022-08-24T23:36:56.047Z,25.20
2022-08-24T23:39:58.309Z,25.20
2022-08-24T23:43:00.158Z,25.30
2022-08-24T23:46:03.461Z,25.30
2022-08-24T23:49:06.281Z,25.30
2022-08-24T23:52:08.522Z,25.30
2022-08-24T23:55:27.644Z,25.30
2022-08-24T23:58:29.443Z,25.30
